Time;durP1;ratioP1;P1;durP2;ratioP2;P2;SDS_P1;SDS_P2;PMS_P1;PMS_P2;Temp;Humidity;BMP_temperature;BMP_pressure;BME280_temperature;BME280_humidity;BME280_pressure;Samples;Min_cycle;Max_cycle;Signal;HPM_P1;HPM_P2
2022/11/27 00:00:26;;;;;;;17.92;5.97;;;;;;;10.70;100.00;102352.56;4987833;28;20046;-58
2022/11/27 00:02:52;;;;;;;19.40;5.33;;;;;;;10.83;100.00;102341.41;4988739;28;20091;-58
2022/11/27 00:05:17;;;;;;;18.43;5.63;;;;;;;11.12;100.00;102337.53;4990307;28;20073;-59
2022/11/27 00:07:44;;;;;;;15.68;4.95;;;;;;;11.24;100.00;102336.22;4985853;28;20265;-58
2022/11/27 00:10:10;;;;;;;20.17;5.23;;;;;;;10.94;100.00;102335.81;4988041;28;20035;-60
2022/11/27 00:12:36;;;;;;;17.73;5.65;;;;;;;10.95;100.00;102332.13;4989179;28;20106;-60
2022/11/27 00:15:02;;;;;;;18.92;5.35;;;;;;;11.17;100.00;102321.81;4992550;28;20043;-59
2022/11/27 00:17:28;;;;;;;25.90;6.88;;;;;;;11.04;100.00;102325.78;4989356;28;20065;-59
2022/11/27 00:19:54;;;;;;;25.63;6.47;;;;;;;11.29;100.00;102322.34;4986640;28;20039;-57
2022/11/27 00:22:19;;;;;;;17.73;5.45;;;;;;;10.96;100.00;102323.09;4989627;28;20031;-58
2022/11/27 00:24:45;;;;;;;18.37;5.53;;;;;;;10.91;100.00;102309.34;4988155;28;20034;-59
2022/11/27 00:27:12;;;;;;;22.73;6.72;;;;;;;11.09;100.00;102311.09;4990118;28;20058;-58
2022/11/27 00:29:37;;;;;;;20.27;7.33;;;;;;;10.84;100.00;102294.94;4984017;28;20039;-59
2022/11/27 00:32:05;;;;;;;19.47;6.57;;;;;;;10.69;100.00;102306.25;4989212;28;20054;-59
2022/11/27 00:34:31;;;;;;;30.55;7.30;;;;;;;10.46;100.00;102296.09;4995778;28;20039;-59
2022/11/27 00:36:56;;;;;;;21.25;6.30;;;;;;;10.90;100.00;102300.47;4980180;28;20050;-60
2022/11/27 00:39:21;;;;;;;23.93;6.23;;;;;;;10.73;100.00;102291.56;4983243;28;20077;-58
2022/11/27 00:41:47;;;;;;;21.95;6.03;;;;;;;10.69;100.00;102290.19;4983103;28;20240;-59
2022/11/27 00:44:13;;;;;;;22.52;5.70;;;;;;;10.75;100.00;102294.09;4987950;28;20039;-59
2022/11/27 00:46:43;;;;;;;;;;;;;;;10.62;100.00;102297.19;4988530;28;20057;-59
2022/11/27 00:49:11;;;;;;;23.52;6.40;;;;;;;10.52;100.00;102299.13;4984051;28;19922;-59
2022/11/27 00:51:37;;;;;;;26.08;5.82;;;;;;;10.53;100.00;102300.81;4988089;28;20039;-58
2022/11/27 00:54:03;;;;;;;22.17;6.00;;;;;;;10.47;100.00;102303.13;4988328;28;20102;-60
2022/11/27 00:56:32;;;;;;;32.97;6.65;;;;;;;10.51;100.00;102300.13;4975791;28;20077;-60
2022/11/27 00:58:58;;;;;;;19.85;6.78;;;;;;;10.71;100.00;102288.19;4969198;28;20099;-58
2022/11/27 01:01:35;;;;;;;26.10;6.82;;;;;;;10.54;100.00;102286.44;4967090;28;20103;-60
2022/11/27 01:04:03;;;;;;;25.67;7.22;;;;;;;10.64;100.00;102280.97;4966480;29;20170;-59
2022/11/27 01:06:29;;;;;;;17.20;6.15;;;;;;;10.40;100.00;102272.69;4965352;29;20058;-60
2022/11/27 01:08:55;;;;;;;18.75;5.47;;;;;;;10.80;100.00;102270.34;4970109;29;20027;-60
2022/11/27 01:11:27;;;;;;;23.02;6.32;;;;;;;10.67;100.00;102262.78;4968925;29;20370;-59
2022/11/27 01:13:55;;;;;;;19.33;6.10;;;;;;;10.75;100.00;102259.28;4970979;28;20027;-58
2022/11/27 01:16:22;;;;;;;23.10;5.75;;;;;;;10.63;100.00;102263.25;4971688;28;20050;-59
2022/11/27 01:18:49;;;;;;;22.35;5.60;;;;;;;10.64;100.00;102265.78;4968876;28;20035;-58
2022/11/27 01:21:18;;;;;;;20.98;6.10;;;;;;;10.29;100.00;102257.72;4967168;28;20050;-55
2022/11/27 01:23:43;;;;;;;19.50;6.40;;;;;;;10.46;100.00;102258.66;4970658;28;20043;-60
2022/11/27 01:26:10;;;;;;;22.27;5.85;;;;;;;10.30;100.00;102262.06;4968909;28;20035;-60
2022/11/27 01:28:40;;;;;;;25.02;6.70;;;;;;;10.81;100.00;102260.47;4968848;28;20031;-59
2022/11/27 01:31:10;;;;;;;21.75;6.15;;;;;;;10.51;100.00;102252.84;4972533;28;20094;-59
2022/11/27 01:33:36;;;;;;;21.80;5.80;;;;;;;10.95;100.00;102245.59;4972265;28;20023;-58
2022/11/27 01:36:04;;;;;;;19.73;7.13;;;;;;;10.27;100.00;102242.81;4967102;28;20043;-59
2022/11/27 01:38:31;;;;;;;25.02;7.35;;;;;;;10.40;100.00;102253.97;4968570;28;20286;-59
2022/11/27 01:40:59;;;;;;;31.20;7.40;;;;;;;10.47;100.00;102246.09;4968638;29;20091;-59
2022/11/27 01:43:43;;;;;;;36.88;7.25;;;;;;;10.60;100.00;102246.53;4968197;28;20107;-59
2022/11/27 01:46:29;;;;;;;20.48;6.80;;;;;;;10.88;100.00;102246.28;4964566;28;20062;-58
2022/11/27 01:49:10;;;;;;;24.15;7.55;;;;;;;10.40;100.00;102235.25;4970539;29;20099;-57
2022/11/27 01:51:51;;;;;;;29.10;7.18;;;;;;;10.36;100.00;102241.84;4968749;28;20039;-60
2022/11/27 01:54:19;;;;;;;24.02;6.75;;;;;;;10.52;100.00;102213.53;4970780;28;20098;-58
2022/11/27 01:56:49;;;;;;;20.38;6.88;;;;;;;10.67;100.00;102214.59;4983071;28;20047;-56
2022/11/27 01:59:16;;;;;;;29.83;6.72;;;;;;;10.67;100.00;102200.38;5003240;28;20054;-58
2022/11/27 02:01:42;;;;;;;24.70;6.43;;;;;;;10.88;100.00;102199.94;4985330;28;20056;-60
2022/11/27 02:04:07;;;;;;;26.97;7.37;;;;;;;10.70;100.00;102184.84;4986344;28;20031;-58
2022/11/27 02:06:33;;;;;;;21.40;6.43;;;;;;;10.55;100.00;102181.13;4985921;28;20280;-57
2022/11/27 02:08:59;;;;;;;25.90;6.90;;;;;;;10.55;100.00;102173.09;4987765;28;20090;-58
2022/11/27 02:11:52;;;;;;;18.80;6.72;;;;;;;10.32;100.00;102168.28;4987714;28;20062;-58
2022/11/27 02:14:54;;;;;;;19.23;5.90;;;;;;;10.13;100.00;102166.72;4989505;28;20042;-59
2022/11/27 02:17:21;;;;;;;21.98;7.25;;;;;;;10.58;100.00;102159.38;4991202;28;20053;-60
2022/11/27 02:20:25;;;;;;;25.27;7.35;;;;;;;10.27;100.00;102160.78;4987650;28;20035;-58
2022/11/27 02:23:09;;;;;;;18.17;7.53;;;;;;;10.18;100.00;102151.03;4987456;28;20043;-59
2022/11/27 02:26:13;;;;;;;22.10;6.85;;;;;;;10.43;100.00;102151.16;4987374;28;20039;-59
2022/11/27 02:29:00;;;;;;;19.92;6.35;;;;;;;10.10;100.00;102151.81;4991529;28;20050;-57
2022/11/27 02:31:49;;;;;;;16.13;5.57;;;;;;;10.38;100.00;102145.44;4985688;28;20035;-59
2022/11/27 02:34:39;;;;;;;25.25;6.78;;;;;;;10.25;100.00;102149.38;4986253;28;20050;-59
2022/11/27 02:37:17;;;;;;;20.38;6.55;;;;;;;9.95;100.00;102143.56;4987316;28;20115;-58
2022/11/27 02:40:12;;;;;;;24.02;6.80;;;;;;;10.02;100.00;102159.81;4988930;28;20042;-59
2022/11/27 02:42:43;;;;;;;15.25;6.18;;;;;;;10.44;100.00;102151.00;4987940;28;20100;-59
2022/11/27 02:45:13;;;;;;;20.08;5.97;;;;;;;10.22;100.00;102155.06;4987072;28;20050;-60
2022/11/27 02:47:42;;;;;;;23.27;7.18;;;;;;;10.63;100.00;102149.06;4989593;28;20045;-57
2022/11/27 02:50:13;;;;;;;18.13;6.10;;;;;;;10.05;100.00;102146.13;4988137;28;20054;-59
2022/11/27 02:52:41;;;;;;;21.73;6.00;;;;;;;9.87;100.00;102149.72;4986322;28;20068;-57
2022/11/27 02:55:12;;;;;;;27.63;8.30;;;;;;;10.40;100.00;102149.66;4988933;28;20042;-59
2022/11/27 02:57:39;;;;;;;26.02;7.50;;;;;;;10.27;100.00;102135.88;4944090;28;20103;-59
2022/11/27 03:00:06;;;;;;;22.98;7.63;;;;;;;10.23;100.00;102146.03;4946399;28;20035;-60
2022/11/27 03:02:38;;;;;;;14.68;5.57;;;;;;;10.32;100.00;102144.22;4947735;28;20039;-59
2022/11/27 03:05:05;;;;;;;15.85;5.80;;;;;;;10.35;100.00;102143.91;4944400;29;20036;-58
2022/11/27 03:07:47;;;;;;;20.35;6.22;;;;;;;10.01;100.00;102142.94;4943630;29;20040;-58
2022/11/27 03:10:23;;;;;;;21.40;6.38;;;;;;;10.09;100.00;102149.34;4946831;28;20032;-56
2022/11/27 03:12:49;;;;;;;18.77;6.05;;;;;;;9.98;100.00;102142.44;4941443;29;20099;-58
2022/11/27 03:15:16;;;;;;;14.80;5.57;;;;;;;9.90;100.00;102144.03;4945348;28;20032;-56
2022/11/27 03:18:03;;;;;;;16.00;6.15;;;;;;;10.31;100.00;102138.06;4945229;29;20042;-58
2022/11/27 03:20:36;;;;;;;18.83;5.80;;;;;;;10.07;100.00;102129.94;4945405;29;20034;-57
2022/11/27 03:23:02;;;;;;;23.00;6.95;;;;;;;11.01;100.00;102128.00;4945308;29;20032;-58
2022/11/27 03:25:27;;;;;;;21.13;6.07;;;;;;;9.92;100.00;102138.56;4948372;29;20107;-56
2022/11/27 03:27:59;;;;;;;21.77;6.07;;;;;;;9.88;100.00;102138.03;4944071;29;20071;-59
2022/11/27 03:30:26;;;;;;;20.08;6.38;;;;;;;10.28;100.00;102142.88;4940964;29;20059;-60
2022/11/27 03:32:51;;;;;;;15.15;5.40;;;;;;;9.99;100.00;102138.75;4943220;29;20047;-58
2022/11/27 03:35:21;;;;;;;13.17;4.90;;;;;;;10.10;100.00;102145.66;4942711;28;20042;-59
2022/11/27 03:37:47;;;;;;;15.48;6.43;;;;;;;10.32;100.00;102144.22;4941228;28;20294;-58
2022/11/27 03:40:13;;;;;;;19.42;7.32;;;;;;;9.86;100.00;102125.84;4944128;29;20036;-59
2022/11/27 03:42:59;;;;;;;21.00;5.70;;;;;;;10.33;100.00;102122.69;4951222;28;20142;-60
2022/11/27 03:45:51;;;;;;;13.27;5.25;;;;;;;10.06;100.00;102126.41;4942632;29;20036;-60
2022/11/27 03:48:35;;;;;;;13.98;5.50;;;;;;;10.32;100.00;102120.16;4944873;29;20051;-59
2022/11/27 03:51:33;;;;;;;14.95;5.63;;;;;;;9.94;100.00;102119.69;4943729;29;20062;-58
2022/11/27 03:54:38;;;;;;;15.30;5.35;;;;;;;10.04;100.00;102131.94;4943182;28;20050;-57
2022/11/27 03:57:16;;;;;;;16.45;5.20;;;;;;;10.06;100.00;102131.75;4973429;28;20047;-58
2022/11/27 03:59:45;;;;;;;18.63;5.13;;;;;;;9.80;100.00;102119.28;4990042;28;20035;-57
2022/11/27 04:02:16;;;;;;;18.50;5.85;;;;;;;9.98;100.00;102113.03;4992229;28;20112;-57
2022/11/27 04:04:42;;;;;;;23.38;5.80;;;;;;;10.08;100.00;102120.94;4985144;28;20034;-57
2022/11/27 04:07:15;;;;;;;17.65;5.25;;;;;;;10.29;100.00;102115.16;4987638;28;20111;-56
2022/11/27 04:09:40;;;;;;;13.82;4.82;;;;;;;10.23;100.00;102105.09;4989284;28;20039;-60
2022/11/27 04:12:06;;;;;;;14.03;4.70;;;;;;;10.12;100.00;102116.94;4990608;28;20039;-57
2022/11/27 04:14:31;;;;;;;16.75;5.30;;;;;;;10.52;100.00;102119.91;4990728;28;20042;-61
2022/11/27 04:16:56;;;;;;;22.63;4.77;;;;;;;10.46;100.00;102129.44;4988858;28;20054;-58
2022/11/27 04:19:22;;;;;;;11.68;4.32;;;;;;;10.19;100.00;102125.97;4991106;28;20035;-58
2022/11/27 04:21:48;;;;;;;20.00;5.27;;;;;;;10.17;100.00;102120.81;4990808;28;20068;-60
2022/11/27 04:24:13;;;;;;;21.10;4.40;;;;;;;10.17;100.00;102128.81;4990257;28;20291;-59
2022/11/27 04:26:39;;;;;;;14.27;5.13;;;;;;;10.05;100.00;102127.41;4990164;28;20041;-57
2022/11/27 04:29:04;;;;;;;11.30;4.50;;;;;;;10.15;100.00;102124.63;4987256;28;20094;-56
2022/11/27 04:31:30;;;;;;;13.23;4.63;;;;;;;10.40;100.00;102117.56;4992796;28;20043;-58
2022/11/27 04:33:55;;;;;;;13.87;4.90;;;;;;;10.37;100.00;102115.16;4990915;28;20047;-58
2022/11/27 04:36:21;;;;;;;14.55;5.53;;;;;;;10.10;100.00;102119.75;4998384;28;20045;-58
2022/11/27 04:38:46;;;;;;;15.77;4.57;;;;;;;10.21;100.00;102117.81;4987128;28;20046;-59
2022/11/27 04:41:12;;;;;;;12.10;4.72;;;;;;;10.22;100.00;102116.81;4988728;28;20095;-59
2022/11/27 04:43:37;;;;;;;18.13;4.83;;;;;;;10.80;100.00;102116.97;4989094;28;20043;-57
2022/11/27 04:46:03;;;;;;;11.20;5.07;;;;;;;10.47;100.00;102109.72;4990479;28;20058;-57
2022/11/27 04:48:28;;;;;;;11.65;4.45;;;;;;;10.43;100.00;102101.19;4986826;28;20031;-60
2022/11/27 04:50:54;;;;;;;17.03;5.13;;;;;;;10.09;100.00;102091.34;4983354;28;20049;-59
2022/11/27 04:53:20;;;;;;;11.98;4.57;;;;;;;10.26;100.00;102086.06;4990106;28;20050;-58
2022/11/27 04:55:46;;;;;;;16.47;5.43;;;;;;;10.08;100.00;102092.34;4988790;28;20074;-57
2022/11/27 04:58:11;;;;;;;8.53;4.30;;;;;;;10.47;100.00;102088.31;4989952;28;20065;-57
2022/11/27 05:00:37;;;;;;;14.27;4.30;;;;;;;10.41;100.00;102075.59;4987483;28;20328;-59
2022/11/27 05:03:02;;;;;;;15.40;4.43;;;;;;;9.95;100.00;102078.63;4987345;28;20277;-59
2022/11/27 05:05:27;;;;;;;11.00;3.97;;;;;;;10.17;100.00;102079.84;4988234;28;20046;-60
2022/11/27 05:07:53;;;;;;;13.30;4.97;;;;;;;10.34;100.00;102083.41;4988548;28;20058;-60
2022/11/27 05:10:19;;;;;;;13.53;4.17;;;;;;;10.23;100.00;102087.22;4992033;28;20106;-58
2022/11/27 05:12:44;;;;;;;20.77;5.30;;;;;;;10.35;100.00;102077.06;4992242;28;20039;-59
2022/11/27 05:15:10;;;;;;;17.50;4.97;;;;;;;10.16;100.00;102065.66;4992319;28;20058;-58
2022/11/27 05:17:35;;;;;;;18.17;4.27;;;;;;;10.27;100.00;102067.19;4990428;28;20122;-60
2022/11/27 05:20:01;;;;;;;16.27;5.22;;;;;;;10.02;100.00;102066.28;4991813;28;20042;-58
2022/11/27 05:22:26;;;;;;;14.20;5.43;;;;;;;10.29;100.00;102062.53;4989623;28;20116;-59
2022/11/27 05:24:52;;;;;;;10.37;4.07;;;;;;;10.33;100.00;102060.34;4985680;28;20054;-57
2022/11/27 05:27:17;;;;;;;11.17;3.93;;;;;;;10.41;100.00;102054.22;4995225;28;20046;-58
2022/11/27 05:29:43;;;;;;;15.67;4.67;;;;;;;10.08;100.00;102054.94;4988222;28;20272;-58
2022/11/27 05:32:08;;;;;;;14.40;4.78;;;;;;;10.43;100.00;102050.38;4992076;28;20113;-58
2022/11/27 05:34:34;;;;;;;13.90;4.30;;;;;;;10.66;100.00;102044.38;4987201;28;20099;-57
2022/11/27 05:36:59;;;;;;;18.03;4.60;;;;;;;10.94;100.00;102046.72;4989776;28;20048;-58
2022/11/27 05:39:25;;;;;;;9.25;3.60;;;;;;;10.56;100.00;102024.97;4989196;28;20084;-56
2022/11/27 05:41:50;;;;;;;11.03;4.20;;;;;;;10.40;100.00;102040.00;4990215;28;20061;-59
2022/11/27 05:44:16;;;;;;;16.57;4.40;;;;;;;10.48;100.00;102041.84;4987962;28;20294;-59
2022/11/27 05:46:44;;;;;;;9.57;3.83;;;;;;;10.34;100.00;102043.28;4991767;28;20272;-60
2022/11/27 05:49:14;;;;;;;18.05;4.75;;;;;;;10.38;100.00;102049.16;4991498;28;20038;-59
2022/11/27 05:51:41;;;;;;;11.45;4.20;;;;;;;10.08;100.00;102040.75;4987668;28;20042;-62
2022/11/27 05:54:08;;;;;;;12.38;3.92;;;;;;;10.38;100.00;102038.47;4989725;28;20030;-59
2022/11/27 05:56:33;;;;;;;13.03;5.40;;;;;;;10.25;100.00;102041.63;4992907;28;20054;-59
2022/11/27 05:59:00;;;;;;;11.93;4.88;;;;;;;10.74;100.00;102041.69;4991677;28;20043;-59
2022/11/27 06:01:25;;;;;;;8.13;3.45;;;;;;;10.71;100.00;102031.34;4988235;28;20044;-59
2022/11/27 06:03:51;;;;;;;11.20;3.50;;;;;;;10.65;100.00;102040.03;4989378;28;20050;-59
2022/11/27 06:06:18;;;;;;;13.07;4.27;;;;;;;10.67;100.00;102032.69;4987645;28;20280;-59
2022/11/27 06:08:45;;;;;;;11.43;4.07;;;;;;;10.72;100.00;102033.00;4985876;28;20090;-60
2022/11/27 06:11:17;;;;;;;12.30;3.90;;;;;;;10.68;100.00;102030.81;4987752;28;20061;-59
2022/11/27 06:13:43;;;;;;;10.63;3.47;;;;;;;10.68;100.00;102029.00;4984327;28;20080;-60
2022/11/27 06:16:12;;;;;;;8.93;4.00;;;;;;;10.65;100.00;102025.81;4987583;28;20030;-59
2022/11/27 06:18:38;;;;;;;11.70;4.07;;;;;;;10.72;100.00;102030.34;4989458;28;20042;-60
2022/11/27 06:21:13;;;;;;;12.70;4.43;;;;;;;10.59;100.00;102021.97;4983338;28;20054;-58
2022/11/27 06:23:40;;;;;;;11.02;4.13;;;;;;;10.39;100.00;102018.75;4984771;28;20047;-59
2022/11/27 06:26:26;;;;;;;13.73;4.20;;;;;;;10.46;100.00;102011.75;4985581;28;20054;-59
2022/11/27 06:28:53;;;;;;;11.20;4.20;;;;;;;10.63;100.00;102012.63;4985584;28;20057;-59
2022/11/27 06:31:23;;;;;;;9.90;3.67;;;;;;;10.53;100.00;102010.09;4985183;28;20050;-57
2022/11/27 06:33:50;;;;;;;9.95;3.33;;;;;;;10.37;100.00;102002.03;4990984;28;20050;-58
2022/11/27 06:36:17;;;;;;;13.50;3.85;;;;;;;10.23;100.00;102015.03;4986493;28;20042;-58
2022/11/27 06:38:43;;;;;;;10.90;4.70;;;;;;;10.28;100.00;102009.19;4991455;28;20588;-62
2022/11/27 06:41:18;;;;;;;12.80;4.13;;;;;;;10.68;100.00;102010.28;4992201;28;20038;-59
2022/11/27 06:43:44;;;;;;;8.20;3.55;;;;;;;10.43;100.00;102012.94;4987027;28;20050;-59
2022/11/27 06:46:15;;;;;;;12.15;4.63;;;;;;;10.68;100.00;102006.75;4990746;28;20054;-56
2022/11/27 06:48:42;;;;;;;13.18;3.50;;;;;;;10.51;100.00;102000.56;4988508;28;20073;-58
2022/11/27 06:51:11;;;;;;;13.68;3.70;;;;;;;10.45;100.00;102000.22;4985643;28;20027;-60
2022/11/27 06:53:37;;;;;;;13.88;4.00;;;;;;;10.39;100.00;102000.03;4990610;28;20047;-59
2022/11/27 06:56:04;;;;;;;12.95;4.28;;;;;;;10.38;100.00;101999.19;4992101;28;20081;-59
2022/11/27 06:58:30;;;;;;;9.63;3.40;;;;;;;10.35;100.00;101988.81;4991507;28;20035;-59
2022/11/27 07:01:00;;;;;;;11.33;4.30;;;;;;;10.41;100.00;101995.38;4991958;28;20046;-58
2022/11/27 07:03:25;;;;;;;14.25;4.47;;;;;;;10.51;100.00;101982.69;4994100;28;20039;-60
2022/11/27 07:05:50;;;;;;;9.10;3.50;;;;;;;10.32;100.00;101981.13;4993640;28;20054;-58
2022/11/27 07:08:17;;;;;;;17.20;4.57;;;;;;;10.14;100.00;101978.59;4993044;28;20276;-58
2022/11/27 07:10:43;;;;;;;14.88;4.45;;;;;;;10.20;100.00;101975.25;4989439;28;20039;-59
2022/11/27 07:13:08;;;;;;;15.57;4.97;;;;;;;10.53;100.00;101969.13;4994129;28;20035;-56
2022/11/27 07:15:34;;;;;;;12.50;3.97;;;;;;;10.65;100.00;101964.28;4991760;28;20042;-59
2022/11/27 07:18:01;;;;;;;18.00;4.93;;;;;;;10.40;100.00;101959.78;4987680;28;20043;-58
2022/11/27 07:20:26;;;;;;;14.45;4.60;;;;;;;10.56;100.00;101958.09;4992121;28;20042;-57
2022/11/27 07:22:52;;;;;;;11.43;4.05;;;;;;;10.35;100.00;101954.03;4992094;28;20043;-58
2022/11/27 07:25:17;;;;;;;12.23;3.97;;;;;;;10.48;100.00;101956.25;4988618;28;20090;-56
2022/11/27 07:27:43;;;;;;;11.67;4.03;;;;;;;10.41;100.00;101961.47;4991061;28;20041;-59
2022/11/27 07:30:09;;;;;;;13.37;4.23;;;;;;;10.20;100.00;101956.53;4988847;28;20276;-58
2022/11/27 07:32:34;;;;;;;13.77;4.35;;;;;;;10.41;100.00;101945.41;4990982;28;20031;-58
2022/11/27 07:35:00;;;;;;;14.60;4.73;;;;;;;10.29;100.00;101941.34;4993089;28;20058;-58
2022/11/27 07:37:29;;;;;;;17.53;5.03;;;;;;;10.13;100.00;101937.66;4990287;28;20062;-58
2022/11/27 07:39:55;;;;;;;14.05;4.55;;;;;;;10.23;100.00;101937.50;4991376;28;20066;-58
2022/11/27 07:42:20;;;;;;;15.33;5.23;;;;;;;10.40;100.00;101942.84;4993550;28;20079;-57
2022/11/27 07:44:46;;;;;;;14.68;4.85;;;;;;;10.39;100.00;101933.16;4968694;28;20035;-58
2022/11/27 07:47:11;;;;;;;11.30;4.90;;;;;;;10.04;100.00;101930.63;4987715;28;20058;-58
2022/11/27 07:49:37;;;;;;;14.17;5.30;;;;;;;10.10;100.00;101921.94;4991352;28;20024;-59
2022/11/27 07:52:02;;;;;;;18.60;5.53;;;;;;;10.14;100.00;101923.28;4987214;28;20049;-60
2022/11/27 07:54:27;;;;;;;26.57;5.63;;;;;;;10.47;100.00;101918.00;4985749;28;20035;-57
2022/11/27 07:56:53;;;;;;;15.88;6.05;;;;;;;10.03;100.00;101911.09;4988979;28;20076;-57
2022/11/27 07:59:19;;;;;;;23.43;6.40;;;;;;;10.13;100.00;101910.09;4985942;28;20039;-57
2022/11/27 08:01:44;;;;;;;14.13;5.57;;;;;;;10.27;100.00;101911.28;4988972;28;20276;-58
2022/11/27 08:04:10;;;;;;;22.83;6.00;;;;;;;9.95;100.00;101904.91;4990983;28;20094;-59
2022/11/27 08:06:35;;;;;;;11.20;5.30;;;;;;;10.18;100.00;101897.06;4989426;28;20042;-59
2022/11/27 08:09:01;;;;;;;21.67;5.97;;;;;;;10.02;100.00;101887.22;4989268;28;20276;-59
2022/11/27 08:11:29;;;;;;;14.73;5.63;;;;;;;10.04;100.00;101893.22;4988713;28;20118;-60
2022/11/27 08:14:00;;;;;;;16.25;5.72;;;;;;;10.35;100.00;101897.91;4991510;28;20076;-59
2022/11/27 08:16:27;;;;;;;14.38;6.65;;;;;;;10.47;100.00;101887.72;4992635;28;20098;-59
2022/11/27 08:18:52;;;;;;;11.85;5.68;;;;;;;10.40;100.00;101895.59;4992347;28;20049;-58
2022/11/27 08:21:19;;;;;;;18.65;6.90;;;;;;;10.81;100.00;101894.69;4976788;28;20034;-59
2022/11/27 08:23:45;;;;;;;13.23;5.53;;;;;;;10.24;100.00;101903.59;4986602;28;20050;-60
2022/11/27 08:26:11;;;;;;;18.98;6.88;;;;;;;10.31;100.00;101891.22;4990211;28;20038;-59
2022/11/27 08:28:38;;;;;;;18.00;6.47;;;;;;;10.30;100.00;101902.91;4988561;28;20058;-58
2022/11/27 08:31:05;;;;;;;;;;;;;;;10.45;100.00;101898.59;4986693;28;20094;-60
2022/11/27 08:33:30;;;;;;;16.40;5.85;;;;;;;10.52;100.00;101920.16;4985781;28;19914;-58
2022/11/27 08:35:56;;;;;;;18.70;6.25;;;;;;;10.87;100.00;101906.56;4987683;28;20125;-59
2022/11/27 08:38:22;;;;;;;18.47;5.87;;;;;;;11.05;100.00;101909.84;4986862;28;20046;-59
2022/11/27 08:40:58;;;;;;;14.68;5.57;;;;;;;11.17;100.00;101907.63;4986512;28;20041;-59
2022/11/27 08:43:24;;;;;;;18.95;6.68;;;;;;;10.89;100.00;101901.88;4988140;28;20043;-59
2022/11/27 08:45:50;;;;;;;16.77;5.72;;;;;;;10.56;100.00;101899.25;4989053;28;20045;-58
2022/11/27 08:48:17;;;;;;;17.77;6.65;;;;;;;10.33;100.00;101895.41;4987194;28;20035;-60
2022/11/27 08:50:42;;;;;;;15.63;5.75;;;;;;;10.74;100.00;101885.69;4986110;28;20034;-59
2022/11/27 08:53:08;;;;;;;15.35;8.25;;;;;;;10.81;100.00;101896.53;4990886;28;20190;-59
2022/11/27 08:55:33;;;;;;;14.00;5.87;;;;;;;10.72;100.00;101899.22;4985738;28;20066;-60
2022/11/27 08:57:59;;;;;;;17.73;6.20;;;;;;;10.53;100.00;101897.75;4987724;28;20046;-61
2022/11/27 09:00:25;;;;;;;16.50;6.55;;;;;;;10.69;100.00;101896.91;4986891;28;20291;-57
2022/11/27 09:02:50;;;;;;;15.10;6.93;;;;;;;10.53;100.00;101896.91;4989234;28;20035;-59
2022/11/27 09:05:16;;;;;;;18.85;5.90;;;;;;;10.65;100.00;101898.25;4985639;28;20042;-60
2022/11/27 09:07:42;;;;;;;20.90;6.30;;;;;;;10.59;100.00;101896.22;4989281;28;20111;-60
2022/11/27 09:10:08;;;;;;;23.17;7.43;;;;;;;10.52;100.00;101897.91;4986709;28;20039;-59
2022/11/27 09:12:35;;;;;;;21.73;6.77;;;;;;;10.57;100.00;101893.75;4987896;28;20106;-61
2022/11/27 09:15:01;;;;;;;15.30;5.78;;;;;;;10.82;100.00;101893.69;4985452;28;20031;-61
2022/11/27 09:17:27;;;;;;;15.30;7.37;;;;;;;11.10;100.00;101892.44;4987634;28;20046;-61
2022/11/27 09:19:52;;;;;;;17.07;6.60;;;;;;;11.67;100.00;101893.16;4985676;28;20284;-60
2022/11/27 09:22:18;;;;;;;19.63;6.13;;;;;;;11.01;100.00;101884.44;4987476;28;20110;-60
2022/11/27 09:24:43;;;;;;;19.70;7.20;;;;;;;11.83;100.00;101895.75;4973849;28;20269;-59
2022/11/27 09:27:09;;;;;;;15.98;6.43;;;;;;;11.12;100.00;101893.09;4987038;28;20034;-59
2022/11/27 09:29:34;;;;;;;18.80;9.10;;;;;;;11.70;100.00;101887.44;4987186;28;20110;-60
2022/11/27 09:32:00;;;;;;;13.88;6.93;;;;;;;10.96;100.00;101897.50;4986539;28;20073;-60
2022/11/27 09:34:26;;;;;;;15.65;7.22;;;;;;;10.83;100.00;101892.69;4988659;28;20154;-60
2022/11/27 09:36:51;;;;;;;16.60;6.70;;;;;;;10.94;100.00;101891.47;4987436;28;20030;-60
2022/11/27 09:39:18;;;;;;;15.00;7.15;;;;;;;11.31;100.00;101906.09;4986560;28;20073;-60
2022/11/27 09:41:50;;;;;;;20.25;7.20;;;;;;;10.98;100.00;101892.00;4986577;28;20043;-59
2022/11/27 09:44:22;;;;;;;16.60;7.43;;;;;;;11.38;100.00;101892.00;5002170;28;20038;-58
2022/11/27 09:46:49;;;;;;;15.68;7.38;;;;;;;10.80;100.00;101884.16;4984521;28;20068;-60
2022/11/27 09:49:21;;;;;;;21.23;8.23;;;;;;;10.90;100.00;101885.63;4987594;28;20053;-60
2022/11/27 09:52:02;;;;;;;20.05;7.82;;;;;;;10.94;100.00;101871.91;4985267;28;20122;-57
2022/11/27 09:54:46;;;;;;;20.13;7.63;;;;;;;10.92;100.00;101874.75;4987786;28;20031;-59
2022/11/27 09:57:17;;;;;;;27.45;8.05;;;;;;;11.37;100.00;101874.25;4986334;28;20065;-60
2022/11/27 09:59:50;;;;;;;24.33;9.60;;;;;;;10.90;100.00;101868.75;4988291;28;20045;-60
2022/11/27 10:02:26;;;;;;;26.73;9.95;;;;;;;10.99;100.00;101867.72;4988914;28;20198;-58
2022/11/27 10:04:52;;;;;;;24.83;8.70;;;;;;;10.74;100.00;101875.81;4986960;28;20067;-60
2022/11/27 10:07:27;;;;;;;21.42;7.32;;;;;;;11.01;100.00;101857.66;4986599;28;20035;-57
2022/11/27 10:10:05;;;;;;;34.78;9.60;;;;;;;10.89;100.00;101859.06;4987150;28;20053;-60
2022/11/27 10:12:50;;;;;;;27.67;10.43;;;;;;;10.99;100.00;101840.13;4989616;28;20065;-60
2022/11/27 10:15:20;;;;;;;21.02;8.70;;;;;;;11.21;100.00;101849.22;4955764;28;20033;-58
2022/11/27 10:17:57;;;;;;;21.70;9.52;;;;;;;11.49;100.00;101838.00;4991191;28;20039;-61
2022/11/27 10:20:38;;;;;;;23.17;8.52;;;;;;;11.03;100.00;101828.88;4989275;28;20047;-60
2022/11/27 10:23:20;;;;;;;18.67;8.27;;;;;;;11.09;100.00;101823.84;4991136;28;20031;-61
2022/11/27 10:25:58;;;;;;;17.20;8.60;;;;;;;11.14;100.00;101824.97;4991219;28;20067;-60
2022/11/27 10:28:37;;;;;;;14.85;7.70;;;;;;;11.44;100.00;101830.53;4988393;28;20050;-58
2022/11/27 10:31:18;;;;;;;24.65;8.50;;;;;;;11.31;100.00;101823.06;4989704;28;20041;-60
2022/11/27 10:33:53;;;;;;;17.60;8.52;;;;;;;11.34;100.00;101827.22;4991629;28;20031;-61
2022/11/27 10:36:38;;;;;;;21.33;8.50;;;;;;;10.98;100.00;101817.88;4988898;28;20098;-59
2022/11/27 10:39:11;;;;;;;18.38;8.05;;;;;;;11.25;100.00;101823.75;4991232;28;20034;-58
2022/11/27 10:41:44;;;;;;;17.58;8.68;;;;;;;11.44;100.00;101818.97;4985579;28;20039;-60
2022/11/27 10:44:20;;;;;;;19.35;7.88;;;;;;;11.31;100.00;101809.69;4989759;28;20030;-60
2022/11/27 10:46:49;;;;;;;19.27;8.07;;;;;;;11.40;100.00;101799.72;4988492;28;20039;-59
2022/11/27 10:49:15;;;;;;;24.73;8.57;;;;;;;11.58;100.00;101802.13;4990663;28;20102;-56
2022/11/27 10:51:40;;;;;;;18.50;8.37;;;;;;;11.43;100.00;101801.22;5006875;28;20121;-63
2022/11/27 10:54:17;;;;;;;17.25;8.02;;;;;;;11.33;100.00;101804.13;4992224;28;20037;-60
2022/11/27 10:56:48;;;;;;;;;;;;;;;12.13;100.00;101798.53;4988309;28;20133;-61
2022/11/27 10:59:22;;;;;;;14.88;7.57;;;;;;;11.27;100.00;101783.41;4988404;28;19942;-61
2022/11/27 11:01:52;;;;;;;21.92;7.55;;;;;;;12.17;100.00;101784.56;4989076;28;20069;-60
2022/11/27 11:04:25;;;;;;;17.83;7.75;;;;;;;12.39;100.00;101783.88;4992029;28;21021;-61
2022/11/27 11:06:50;;;;;;;14.80;6.78;;;;;;;12.04;100.00;101773.66;4987818;28;20050;-60
2022/11/27 11:09:29;;;;;;;23.65;8.10;;;;;;;11.58;100.00;101774.50;4995149;28;20043;-60
2022/11/27 11:12:08;;;;;;;19.80;7.97;;;;;;;12.01;100.00;101765.97;4991874;28;20046;-60
2022/11/27 11:14:34;;;;;;;17.80;6.75;;;;;;;11.58;100.00;101761.94;4989754;28;20109;-60
2022/11/27 11:16:59;;;;;;;18.50;8.10;;;;;;;11.80;100.00;101756.75;4990409;28;20031;-59
2022/11/27 11:19:30;;;;;;;15.60;6.90;;;;;;;11.91;100.00;101753.63;4987030;28;20040;-60
2022/11/27 11:21:57;;;;;;;21.33;7.22;;;;;;;11.85;100.00;101740.09;4991030;28;20041;-59